Time;durP1;ratioP1;P1;durP2;ratioP2;P2;SDS_P1;SDS_P2;PMS_P1;PMS_P2;Temp;Humidity;BMP_temperature;BMP_pressure;BME280_temperature;BME280_humidity;BME280_pressure;Samples;Min_cycle;Max_cycle;Signal;HPM_P1;HPM_P2
2023/11/27 00:04:09;;;;;;;3.57;3.37;;;6.10;99.90;;;;;;10306783;28;20199;-79
2023/11/27 00:09:12;;;;;;;4.20;3.90;;;6.10;99.90;;;;;;10305351;28;20207;-79
2023/11/27 00:14:16;;;;;;;4.77;4.40;;;6.10;99.90;;;;;;10304477;28;20712;-79
2023/11/27 00:19:18;;;;;;;4.20;3.90;;;6.10;99.90;;;;;;10287292;28;20318;-79
2023/11/27 00:24:21;;;;;;;4.50;4.20;;;6.10;99.90;;;;;;10304098;28;20230;-79
2023/11/27 00:29:24;;;;;;;3.93;3.63;;;6.10;99.90;;;;;;10304184;28;20617;-77
2023/11/27 00:34:27;;;;;;;4.50;3.90;;;6.10;99.90;;;;;;10304001;28;20278;-78
2023/11/27 00:39:29;;;;;;;4.27;3.97;;;6.00;99.90;;;;;;10285388;28;20242;-79
2023/11/27 00:44:33;;;;;;;3.53;3.33;;;6.00;99.90;;;;;;10301023;28;20223;-76
2023/11/27 00:49:35;;;;;;;4.77;4.37;;;6.00;99.90;;;;;;10300870;28;20614;-79
2023/11/27 00:54:37;;;;;;;4.57;4.17;;;6.00;99.90;;;;;;10282997;28;20223;-79
2023/11/27 00:59:41;;;;;;;7.23;4.93;;;6.00;99.90;;;;;;10301186;28;20196;-79
2023/11/27 01:04:43;;;;;;;4.50;4.10;;;6.00;99.90;;;;;;10281802;28;20250;-79
2023/11/27 01:09:46;;;;;;;4.63;4.23;;;6.00;99.90;;;;;;10299968;28;20278;-79
2023/11/27 01:14:50;;;;;;;4.53;3.90;;;5.90;99.90;;;;;;10290710;28;20218;-79
2023/11/27 01:19:53;;;;;;;4.63;4.23;;;5.90;99.90;;;;;;10306320;28;20204;-78
2023/11/27 01:24:56;;;;;;;4.87;4.47;;;6.00;99.90;;;;;;10291641;28;20223;-79
2023/11/27 01:30:01;;;;;;;5.43;4.83;;;5.90;99.90;;;;;;10296995;28;20187;-79
2023/11/27 01:35:03;;;;;;;6.70;4.47;;;6.00;99.90;;;;;;10290783;28;20246;-79
2023/11/27 01:40:07;;;;;;;5.53;5.10;;;5.90;99.90;;;;;;10288530;28;20692;-79
2023/11/27 01:45:11;;;;;;;4.90;3.93;;;5.90;99.90;;;;;;10306839;28;20976;-79
2023/11/27 01:50:13;;;;;;;3.93;3.63;;;5.90;99.90;;;;;;10286157;28;20624;-79
2023/11/27 01:55:16;;;;;;;4.60;4.30;;;5.90;99.90;;;;;;10286027;28;20239;-79
2023/11/27 02:00:20;;;;;;;4.00;3.70;;;5.90;99.90;;;;;;10298183;28;20208;-77
2023/11/27 02:05:23;;;;;;;4.43;4.03;;;5.90;99.90;;;;;;10296430;28;20270;-79
2023/11/27 02:10:25;;;;;;;4.00;3.70;;;5.90;99.90;;;;;;10298279;28;20204;-79
2023/11/27 02:15:29;;;;;;;4.07;3.77;;;5.90;99.90;;;;;;10281268;28;20219;-78
2023/11/27 02:20:31;;;;;;;5.37;4.50;;;5.90;99.90;;;;;;10281696;28;20207;-78
2023/11/27 02:25:35;;;;;;;5.80;4.00;;;6.00;99.90;;;;;;10280120;28;20330;-78
2023/11/27 02:30:38;;;;;;;3.63;3.33;;;6.00;99.90;;;;;;10296684;28;20192;-78
2023/11/27 02:35:40;;;;;;;3.33;3.10;;;6.10;99.90;;;;;;10263316;28;20223;-78
2023/11/27 02:40:43;;;;;;;3.30;3.10;;;6.10;99.90;;;;;;10313960;28;20196;-79
2023/11/27 02:45:46;;;;;;;3.90;3.50;;;6.20;99.90;;;;;;10280331;28;20580;-78
2023/11/27 02:50:48;;;;;;;6.70;3.43;;;6.20;99.90;;;;;;10319865;28;20212;-78
2023/11/27 02:55:53;;;;;;;3.70;3.33;;;6.20;99.90;;;;;;10317170;28;20711;-78
2023/11/27 03:00:56;;;;;;;3.47;3.17;;;6.20;99.90;;;;;;10319465;28;20200;-78
2023/11/27 03:05:58;;;;;;;3.27;3.07;;;6.30;99.90;;;;;;10301554;28;20235;-78
2023/11/27 03:11:03;;;;;;;3.10;2.90;;;6.20;99.90;;;;;;10315517;28;20213;-78
2023/11/27 03:16:06;;;;;;;3.40;3.10;;;6.30;99.90;;;;;;10298222;28;20219;-77
2023/11/27 03:21:18;;;;;;;3.50;3.30;;;6.30;99.90;;;;;;10318696;28;20200;-78
2023/11/27 03:26:22;;;;;;;3.40;3.20;;;6.20;99.90;;;;;;10302080;28;20226;-78
2023/11/27 03:31:25;;;;;;;2.90;2.70;;;6.20;99.90;;;;;;10307761;28;20663;-78
2023/11/27 03:36:27;;;;;;;4.80;3.27;;;6.20;99.90;;;;;;10317198;28;20251;-78
2023/11/27 03:41:31;;;;;;;3.43;3.13;;;6.20;99.90;;;;;;10296347;28;20262;-79
2023/11/27 03:46:33;;;;;;;2.97;2.77;;;6.20;99.90;;;;;;10302545;28;20219;-79
2023/11/27 03:51:37;;;;;;;3.57;3.03;;;6.20;99.90;;;;;;10314876;28;20231;-77
2023/11/27 03:56:41;;;;;;;3.17;2.97;;;6.20;99.90;;;;;;10291035;28;20251;-77
2023/11/27 04:01:43;;;;;;;3.67;3.40;;;6.20;99.90;;;;;;10289519;28;20210;-77
2023/11/27 04:06:46;;;;;;;3.37;3.17;;;6.30;99.90;;;;;;10308701;28;20227;-78
2023/11/27 04:11:49;;;;;;;2.90;2.70;;;6.30;99.90;;;;;;10290128;28;20220;-78
2023/11/27 04:16:52;;;;;;;2.97;2.87;;;6.30;99.90;;;;;;10307860;28;20601;-76
2023/11/27 04:21:54;;;;;;;3.90;3.50;;;6.30;99.90;;;;;;10288877;28;20260;-77
2023/11/27 04:26:58;;;;;;;3.40;3.13;;;6.30;99.90;;;;;;10286725;28;20219;-78
2023/11/27 04:32:00;;;;;;;3.20;2.90;;;6.30;99.90;;;;;;10305323;28;20666;-78
2023/11/27 04:37:03;;;;;;;3.13;2.93;;;6.30;99.90;;;;;;10303528;28;20598;-78
2023/11/27 04:42:07;;;;;;;3.40;3.20;;;6.30;99.90;;;;;;10302742;28;20246;-77
2023/11/27 04:47:11;;;;;;;3.00;2.80;;;6.20;99.90;;;;;;10307962;28;20234;-77
2023/11/27 04:52:14;;;;;;;3.00;2.80;;;6.20;99.90;;;;;;10301015;28;20773;-78
2023/11/27 04:57:18;;;;;;;4.20;3.07;;;6.20;99.90;;;;;;10300919;28;20246;-79
2023/11/27 05:02:20;;;;;;;3.00;2.80;;;6.10;99.90;;;;;;10318231;28;20218;-78
2023/11/27 05:07:23;;;;;;;3.60;3.30;;;6.10;99.90;;;;;;10295344;28;20231;-78
2023/11/27 05:12:26;;;;;;;2.63;2.53;;;6.10;99.90;;;;;;10301675;28;20219;-78
2023/11/27 05:17:29;;;;;;;3.50;3.20;;;6.10;99.90;;;;;;10297241;28;20701;-78
2023/11/27 05:22:31;;;;;;;3.30;3.10;;;6.00;99.90;;;;;;10303426;28;20196;-78
2023/11/27 05:27:35;;;;;;;3.07;2.87;;;6.00;99.90;;;;;;10296705;28;20220;-78
2023/11/27 05:32:37;;;;;;;2.90;2.70;;;6.00;99.90;;;;;;10296467;28;20231;-78
2023/11/27 05:37:39;;;;;;;2.70;2.50;;;6.00;99.90;;;;;;10278757;28;20231;-81
2023/11/27 05:42:43;;;;;;;2.13;2.03;;;6.00;99.90;;;;;;10295472;28;20624;-79
2023/11/27 05:47:45;;;;;;;3.00;2.80;;;6.00;99.90;;;;;;10302639;28;20227;-78
2023/11/27 05:52:48;;;;;;;2.90;2.70;;;6.10;99.90;;;;;;10298769;28;20227;-78
2023/11/27 05:57:54;;;;;;;2.97;2.77;;;6.10;99.90;;;;;;10299741;28;20642;-78
2023/11/27 06:02:56;;;;;;;2.80;2.60;;;6.10;99.90;;;;;;10303272;28;20196;-78
2023/11/27 06:07:59;;;;;;;2.73;2.63;;;6.20;99.90;;;;;;10313631;28;20294;-76
2023/11/27 06:13:03;;;;;;;3.47;3.17;;;6.20;99.90;;;;;;10307458;28;20208;-78
2023/11/27 06:18:06;;;;;;;3.50;2.87;;;6.20;99.90;;;;;;10320381;28;20227;-76
2023/11/27 06:23:08;;;;;;;3.50;3.30;;;6.20;99.90;;;;;;10305973;28;20223;-77
2023/11/27 06:28:13;;;;;;;3.50;3.13;;;6.20;99.90;;;;;;10325326;28;20714;-78
2023/11/27 06:33:15;;;;;;;4.70;4.20;;;6.20;99.90;;;;;;10313296;28;20216;-77
2023/11/27 06:38:18;;;;;;;4.73;3.73;;;6.20;99.90;;;;;;10311236;28;20222;-77
2023/11/27 06:43:24;;;;;;;5.17;4.67;;;6.20;99.90;;;;;;10312058;28;20626;-77
2023/11/27 06:48:26;;;;;;;4.50;4.10;;;6.20;99.90;;;;;;10311482;28;20222;-78
2023/11/27 06:53:28;;;;;;;5.23;4.67;;;6.20;99.90;;;;;;10311662;28;20222;-77
2023/11/27 06:58:32;;;;;;;4.83;4.37;;;6.20;99.90;;;;;;10311152;28;20219;-77
2023/11/27 07:03:34;;;;;;;4.67;4.27;;;6.20;99.90;;;;;;10313926;28;20566;-77
2023/11/27 07:08:37;;;;;;;4.73;4.33;;;6.20;99.90;;;;;;10313964;28;20271;-77
2023/11/27 07:13:41;;;;;;;7.00;4.87;;;6.30;99.90;;;;;;10310173;28;20227;-78
2023/11/27 07:18:46;;;;;;;5.23;4.73;;;6.30;99.90;;;;;;10306504;28;20266;-77
2023/11/27 07:23:49;;;;;;;5.77;4.17;;;6.30;99.90;;;;;;10307095;28;20207;-77
2023/11/27 07:28:55;;;;;;;4.47;4.00;;;6.30;99.90;;;;;;10307017;28;20224;-77
2023/11/27 07:33:58;;;;;;;3.93;3.63;;;6.40;99.90;;;;;;10306344;28;20296;-77
2023/11/27 07:39:00;;;;;;;4.13;3.83;;;6.40;99.90;;;;;;10306160;28;20606;-77
2023/11/27 07:44:04;;;;;;;3.97;3.67;;;6.40;99.90;;;;;;10305671;28;20196;-77
2023/11/27 07:49:06;;;;;;;4.73;4.20;;;6.50;99.90;;;;;;10306035;28;20255;-78
2023/11/27 07:54:08;;;;;;;8.50;4.37;;;6.50;99.90;;;;;;10311601;28;20215;-78
2023/11/27 07:59:12;;;;;;;4.20;3.90;;;6.50;99.90;;;;;;10303935;28;20220;-78
2023/11/27 08:04:15;;;;;;;6.93;4.80;;;6.50;99.90;;;;;;10299366;28;20247;-77
2023/11/27 08:09:17;;;;;;;5.00;4.33;;;6.60;99.90;;;;;;10297510;28;20211;-77
2023/11/27 08:14:21;;;;;;;4.20;3.80;;;6.60;99.90;;;;;;10297256;28;20637;-77
2023/11/27 08:19:23;;;;;;;4.50;4.10;;;6.60;99.90;;;;;;10296575;28;20614;-77
2023/11/27 08:24:26;;;;;;;4.47;4.07;;;6.70;99.90;;;;;;10300159;28;20192;-78
2023/11/27 08:29:31;;;;;;;5.00;4.50;;;6.70;99.90;;;;;;10299699;28;20591;-77
2023/11/27 08:34:33;;;;;;;4.23;3.93;;;6.80;99.90;;;;;;10287802;28;20303;-77
2023/11/27 08:39:36;;;;;;;4.30;4.00;;;6.80;99.90;;;;;;10298484;28;20250;-77
2023/11/27 08:44:40;;;;;;;4.93;3.07;;;6.80;99.90;;;;;;10297014;28;20843;-77
2023/11/27 08:49:42;;;;;;;4.33;3.93;;;6.90;99.90;;;;;;10296118;28;20231;-77
2023/11/27 08:54:45;;;;;;;3.90;3.60;;;6.90;99.90;;;;;;10292186;28;20215;-77
2023/11/27 08:59:48;;;;;;;4.10;3.77;;;6.90;99.90;;;;;;10292583;28;20192;-77
2023/11/27 09:04:51;;;;;;;4.77;3.83;;;7.00;99.90;;;;;;10272408;28;20600;-77
2023/11/27 09:09:53;;;;;;;3.70;3.40;;;7.00;99.90;;;;;;10294132;28;20227;-77
2023/11/27 09:14:57;;;;;;;4.70;4.30;;;7.00;99.90;;;;;;10297400;28;20281;-78
2023/11/27 09:19:59;;;;;;;4.10;3.80;;;7.00;99.90;;;;;;10295241;28;20203;-77
2023/11/27 09:25:05;;;;;;;5.60;3.77;;;7.00;99.90;;;;;;10302552;28;20230;-78
2023/11/27 09:30:10;;;;;;;4.20;3.90;;;7.10;99.90;;;;;;10314516;28;20291;-78
2023/11/27 09:35:15;;;;;;;3.50;3.20;;;7.20;99.90;;;;;;10302945;28;20290;-77
2023/11/27 09:40:19;;;;;;;3.73;3.13;;;7.40;99.90;;;;;;10301473;28;20262;-77
2023/11/27 09:45:23;;;;;;;3.50;3.20;;;7.40;99.90;;;;;;10298086;28;20271;-78
2023/11/27 09:50:28;;;;;;;3.70;3.33;;;7.40;99.90;;;;;;10298165;28;20208;-77
2023/11/27 09:55:34;;;;;;;3.83;3.50;;;7.40;99.90;;;;;;10298060;28;20253;-77
2023/11/27 10:00:41;;;;;;;4.00;3.60;;;7.50;99.90;;;;;;10297294;28;20207;-77
2023/11/27 10:05:43;;;;;;;3.20;3.00;;;7.50;99.90;;;;;;10294163;28;20231;-77
2023/11/27 10:10:47;;;;;;;3.93;3.63;;;7.60;99.90;;;;;;10294060;28;20204;-75
2023/11/27 10:15:53;;;;;;;3.30;2.90;;;7.60;99.90;;;;;;10290528;28;20267;-77
2023/11/27 10:20:56;;;;;;;2.90;2.67;;;7.70;99.90;;;;;;10293057;28;20271;-78
2023/11/27 10:25:59;;;;;;;3.27;2.90;;;7.80;99.90;;;;;;10297651;28;20568;-77
2023/11/27 10:31:04;;;;;;;2.77;2.57;;;7.80;99.90;;;;;;10276741;28;20577;-77
2023/11/27 10:36:07;;;;;;;3.17;2.80;;;7.90;99.90;;;;;;10292239;28;20239;-78
2023/11/27 10:41:09;;;;;;;3.40;3.10;;;7.90;99.90;;;;;;10292996;28;20208;-77
2023/11/27 10:46:14;;;;;;;3.30;3.10;;;7.90;99.90;;;;;;10290910;28;20220;-77
2023/11/27 10:51:18;;;;;;;3.27;2.97;;;7.90;99.90;;;;;;10312178;28;20195;-77
2023/11/27 10:56:21;;;;;;;2.77;2.57;;;7.90;99.90;;;;;;10309877;28;20231;-75
2023/11/27 11:01:32;;;;;;;3.53;3.23;;;7.90;99.90;;;;;;10308760;28;20198;-78
2023/11/27 11:06:35;;;;;;;2.97;2.77;;;7.90;99.90;;;;;;10293124;28;20227;-76
2023/11/27 11:11:37;;;;;;;2.63;2.47;;;8.10;99.90;;;;;;10311641;28;20199;-77
2023/11/27 11:16:50;;;;;;;2.40;2.30;;;8.20;99.90;;;;;;10307708;28;20227;-76
2023/11/27 11:22:01;;;;;;;2.80;2.50;;;8.30;99.90;;;;;;10307383;28;20200;-77
2023/11/27 11:27:16;;;;;;;3.63;3.33;;;8.30;99.90;;;;;;10304263;28;20227;-76
2023/11/27 11:32:27;;;;;;;3.50;3.17;;;8.40;99.90;;;;;;10308538;28;20207;-78
2023/11/27 11:37:32;;;;;;;3.33;3.13;;;8.30;99.90;;;;;;10307394;28;20730;-78
2023/11/27 11:42:36;;;;;;;3.20;2.90;;;8.30;99.90;;;;;;10289843;28;20274;-77
2023/11/27 11:47:42;;;;;;;2.70;2.50;;;8.20;99.90;;;;;;10306254;28;20224;-78
2023/11/27 11:52:47;;;;;;;3.00;2.80;;;8.10;99.90;;;;;;10307204;28;20220;-78
2023/11/27 11:57:49;;;;;;;3.30;2.80;;;8.00;99.90;;;;;;10309183;28;20223;-78
2023/11/27 12:02:54;;;;;;;3.67;3.37;;;7.90;99.90;;;;;;10304110;28;20317;-78
2023/11/27 12:07:57;;;;;;;2.57;2.37;;;7.90;99.90;;;;;;10294316;28;20228;-77
2023/11/27 12:13:00;;;;;;;1.90;1.80;;;7.90;99.90;;;;;;10303334;28;20211;-78
2023/11/27 12:18:08;;;;;;;2.77;2.20;;;7.90;99.90;;;;;;10288088;28;20283;-78
2023/11/27 12:23:12;;;;;;;1.70;1.60;;;7.90;99.90;;;;;;10285603;28;20204;-78
2023/11/27 12:28:15;;;;;;;3.17;1.63;;;7.80;99.90;;;;;;10297300;28;20228;-77
2023/11/27 12:33:19;;;;;;;1.80;1.70;;;7.80;99.90;;;;;;10297494;28;20254;-77
2023/11/27 12:38:24;;;;;;;2.80;1.97;;;7.90;99.90;;;;;;10296169;28;20212;-77
2023/11/27 12:43:34;;;;;;;1.90;1.80;;;7.90;99.90;;;;;;10295988;28;20269;-77
2023/11/27 12:48:38;;;;;;;2.80;1.67;;;7.90;99.90;;;;;;10299706;28;20223;-76
2023/11/27 12:53:43;;;;;;;1.50;1.40;;;7.90;99.90;;;;;;10294838;28;20601;-77
2023/11/27 12:58:46;;;;;;;2.37;1.33;;;7.90;99.90;;;;;;10293614;28;20227;-77
2023/11/27 13:03:49;;;;;;;1.27;1.20;;;7.80;99.90;;;;;;10294395;28;20184;-76
2023/11/27 13:08:53;;;;;;;1.93;1.60;;;7.50;99.90;;;;;;10297862;28;20290;-76
2023/11/27 13:13:55;;;;;;;1.57;1.30;;;7.20;99.90;;;;;;10304869;28;20729;-76
2023/11/27 13:18:59;;;;;;;2.63;1.83;;;7.00;99.90;;;;;;10308948;28;20227;-77
2023/11/27 13:24:03;;;;;;;1.87;1.77;;;6.80;99.90;;;;;;10301632;28;20211;-77
2023/11/27 13:29:06;;;;;;;2.67;2.50;;;6.80;99.90;;;;;;10301535;28;20281;-76
2023/11/27 13:34:32;;;;;;;2.37;2.20;;;6.60;99.90;;;;;;10283154;28;20216;-77
2023/11/27 13:39:36;;;;;;;2.30;2.13;;;6.60;99.90;;;;;;10301687;28;20246;-77
2023/11/27 13:44:39;;;;;;;2.90;2.50;;;6.50;99.90;;;;;;10301114;28;20685;-77
2023/11/27 13:49:45;;;;;;;2.10;2.00;;;6.40;99.90;;;;;;10300550;28;20203;-77
2023/11/27 13:54:50;;;;;;;2.33;2.03;;;6.30;99.90;;;;;;10300055;28;20279;-77
2023/11/27 13:59:52;;;;;;;1.40;1.30;;;6.20;99.90;;;;;;10297637;28;20200;-75
2023/11/27 14:05:05;;;;;;;2.67;2.57;;;6.10;99.90;;;;;;10296729;28;20223;-77
2023/11/27 14:10:21;;;;;;;2.40;2.20;;;6.00;99.90;;;;;;10298133;28;20680;-77
2023/11/27 14:15:24;;;;;;;3.00;2.80;;;5.90;99.90;;;;;;10296249;28;20711;-77
2023/11/27 14:20:48;;;;;;;3.17;2.97;;;5.90;99.90;;;;;;10296028;28;20196;-77
2023/11/27 14:26:12;;;;;;;2.90;2.80;;;5.80;99.90;;;;;;10294309;28;20208;-77
2023/11/27 14:31:12;;;;;;;3.23;3.10;;;5.80;99.90;;;;;;10293551;28;20259;-78
2023/11/27 14:36:16;;;;;;;3.67;3.37;;;5.70;99.90;;;;;;10293311;28;20223;-77
2023/11/27 14:41:20;;;;;;;4.00;3.80;;;5.70;99.90;;;;;;10281811;28;20740;-77
2023/11/27 14:46:25;;;;;;;3.37;3.17;;;5.80;99.90;;;;;;10294272;28;20323;-78
2023/11/27 14:51:29;;;;;;;3.73;3.53;;;5.70;99.90;;;;;;10278044;28;20258;-78
2023/11/27 14:56:32;;;;;;;3.87;3.50;;;5.70;99.90;;;;;;10294258;28;20231;-77
2023/11/27 15:01:35;;;;;;;4.57;4.30;;;5.70;99.90;;;;;;10289658;28;20204;-77
2023/11/27 15:06:39;;;;;;;4.20;4.00;;;5.60;99.90;;;;;;10281340;28;20222;-77
2023/11/27 15:11:41;;;;;;;5.20;4.90;;;5.50;99.90;;;;;;10305846;28;20204;-77
2023/11/27 15:16:45;;;;;;;4.70;4.50;;;5.50;99.90;;;;;;10294817;28;20283;-77
2023/11/27 15:21:55;;;;;;;4.80;4.40;;;5.50;99.90;;;;;;10313069;28;20204;-78
2023/11/27 15:26:57;;;;;;;3.70;3.50;;;5.50;99.90;;;;;;10313019;28;20604;-77
2023/11/27 15:32:00;;;;;;;4.40;4.20;;;5.50;99.90;;;;;;10311063;28;20196;-77
2023/11/27 15:37:06;;;;;;;4.00;3.80;;;5.50;99.90;;;;;;10310471;28;20697;-78
2023/11/27 15:42:08;;;;;;;4.40;4.13;;;5.50;99.90;;;;;;10318148;28;20207;-77
2023/11/27 15:47:11;;;;;;;4.10;3.77;;;5.40;99.90;;;;;;10309693;28;20226;-78
2023/11/27 15:52:15;;;;;;;6.40;4.53;;;5.40;99.90;;;;;;10317242;28;20693;-77
2023/11/27 15:57:18;;;;;;;5.13;4.83;;;5.30;99.90;;;;;;10301389;28;20224;-78
2023/11/27 16:02:21;;;;;;;4.90;4.70;;;5.30;99.90;;;;;;10322946;28;20207;-77
2023/11/27 16:07:25;;;;;;;4.90;4.63;;;5.20;99.90;;;;;;10297641;28;20571;-76
2023/11/27 16:12:29;;;;;;;5.13;4.73;;;5.30;99.90;;;;;;10304462;28;20199;-76
2023/11/27 16:17:37;;;;;;;5.07;4.67;;;5.30;99.90;;;;;;10303343;28;20257;-75
2023/11/27 16:22:42;;;;;;;4.20;3.97;;;5.30;99.90;;;;;;10300434;28;20266;-76
2023/11/27 16:27:45;;;;;;;4.57;4.17;;;5.30;99.90;;;;;;10307864;28;20571;-75
2023/11/27 16:32:47;;;;;;;4.40;4.20;;;5.30;99.90;;;;;;10279798;28;20266;-75
2023/11/27 16:37:52;;;;;;;6.77;6.17;;;5.20;99.90;;;;;;10271571;28;20275;-76
2023/11/27 16:42:55;;;;;;;4.23;4.03;;;5.20;99.90;;;;;;10303408;28;20721;-75
2023/11/27 16:47:57;;;;;;;3.63;3.43;;;5.20;99.90;;;;;;10284170;28;20220;-76
2023/11/27 16:53:01;;;;;;;3.87;3.50;;;5.30;99.90;;;;;;10303348;28;20199;-76
2023/11/27 16:58:05;;;;;;;3.67;3.40;;;5.40;99.90;;;;;;10302130;28;20225;-77
2023/11/27 17:03:07;;;;;;;2.80;2.70;;;5.40;99.90;;;;;;10300946;28;20207;-76
2023/11/27 17:08:11;;;;;;;3.17;3.07;;;5.50;99.90;;;;;;10296089;28;20224;-75
2023/11/27 17:13:14;;;;;;;2.73;2.63;;;5.60;99.90;;;;;;10297071;28;20266;-78
2023/11/27 17:18:17;;;;;;;3.20;3.10;;;5.70;99.90;;;;;;10298045;28;20235;-78
2023/11/27 17:23:20;;;;;;;3.20;3.00;;;5.70;99.90;;;;;;10296230;28;20203;-78
2023/11/27 17:28:24;;;;;;;3.23;3.07;;;5.70;99.90;;;;;;10309522;28;20231;-77
2023/11/27 17:33:28;;;;;;;3.40;3.10;;;5.60;99.90;;;;;;10303172;28;20200;-78
2023/11/27 17:38:34;;;;;;;2.90;2.80;;;5.70;99.90;;;;;;10305604;28;20286;-77
2023/11/27 17:43:37;;;;;;;2.57;2.33;;;5.60;99.90;;;;;;10312167;28;20704;-78
2023/11/27 17:48:39;;;;;;;2.73;2.60;;;5.60;99.90;;;;;;10308174;28;20242;-78
2023/11/27 17:53:43;;;;;;;3.20;3.10;;;5.60;99.90;;;;;;10315129;28;20211;-78
2023/11/27 17:58:45;;;;;;;3.87;3.70;;;5.60;99.90;;;;;;10322293;28;20223;-78
2023/11/27 18:03:48;;;;;;;3.63;3.53;;;5.50;99.90;;;;;;10307567;28;20214;-76
2023/11/27 18:08:52;;;;;;;3.67;3.37;;;5.50;99.90;;;;;;10294014;28;20227;-77
2023/11/27 18:13:54;;;;;;;3.73;3.60;;;5.50;99.90;;;;;;10312166;28;20203;-77
2023/11/27 18:18:57;;;;;;;3.67;3.20;;;5.50;99.90;;;;;;10304588;28;20866;-77
2023/11/27 18:24:01;;;;;;;3.80;3.70;;;5.40;99.90;;;;;;10289548;28;20250;-77
2023/11/27 18:29:05;;;;;;;5.40;4.13;;;5.40;99.90;;;;;;10290518;28;20211;-77
2023/11/27 18:34:07;;;;;;;4.20;4.00;;;5.30;99.90;;;;;;10290478;28;20242;-77
2023/11/27 18:39:12;;;;;;;4.00;3.80;;;5.30;99.90;;;;;;10274949;28;20228;-76
2023/11/27 18:44:15;;;;;;;4.33;3.70;;;5.20;99.90;;;;;;10291399;28;20215;-76
2023/11/27 18:49:18;;;;;;;4.20;4.00;;;5.30;99.90;;;;;;10274215;28;20199;-76
2023/11/27 18:54:22;;;;;;;3.60;3.50;;;5.20;99.90;;;;;;10290445;28;20261;-76
2023/11/27 18:59:24;;;;;;;3.80;3.70;;;5.30;99.90;;;;;;10290501;28;20669;-76
2023/11/27 19:04:27;;;;;;;3.97;3.77;;;5.30;99.90;;;;;;10303327;28;20212;-77
2023/11/27 19:09:31;;;;;;;3.00;2.90;;;5.30;99.90;;;;;;10313240;28;20203;-77
2023/11/27 19:14:33;;;;;;;3.30;3.20;;;5.30;99.90;;;;;;10319275;28;20227;-77
2023/11/27 19:19:36;;;;;;;3.13;3.03;;;5.40;99.90;;;;;;10311254;28;20274;-75
2023/11/27 19:24:40;;;;;;;3.80;3.60;;;5.30;99.90;;;;;;10311061;28;20223;-76
2023/11/27 19:29:42;;;;;;;2.50;2.40;;;5.30;99.90;;;;;;10328621;28;20314;-79
2023/11/27 19:34:45;;;;;;;2.77;2.67;;;5.40;99.90;;;;;;10312016;28;20231;-79
2023/11/27 19:39:48;;;;;;;3.37;3.17;;;5.50;99.90;;;;;;10327376;28;20223;-77
2023/11/27 19:44:51;;;;;;;3.70;3.50;;;5.40;99.90;;;;;;10316426;28;20219;-77
2023/11/27 19:49:53;;;;;;;2.70;2.50;;;5.40;99.90;;;;;;10324603;28;20204;-77
2023/11/27 19:54:57;;;;;;;2.50;2.40;;;5.40;99.90;;;;;;10318247;28;20230;-76
2023/11/27 19:59:59;;;;;;;4.13;3.90;;;5.30;99.90;;;;;;10319785;28;20222;-78
2023/11/27 20:05:02;;;;;;;4.20;4.10;;;5.30;99.90;;;;;;10319088;28;20263;-77
2023/11/27 20:10:08;;;;;;;4.33;4.13;;;5.30;99.90;;;;;;10325702;28;20212;-78
2023/11/27 20:15:11;;;;;;;3.90;3.80;;;5.30;99.90;;;;;;10316778;28;20728;-75
2023/11/27 20:20:15;;;;;;;4.83;4.53;;;5.30;99.90;;;;;;10309707;28;20254;-75
2023/11/27 20:25:19;;;;;;;4.97;4.70;;;5.30;99.90;;;;;;10304531;28;20227;-77
2023/11/27 20:30:23;;;;;;;6.40;6.00;;;5.30;99.90;;;;;;10311469;28;20265;-75
2023/11/27 20:35:25;;;;;;;7.40;7.20;;;5.30;99.90;;;;;;10312635;28;20227;-77
2023/11/27 20:40:29;;;;;;;7.23;6.93;;;5.20;99.90;;;;;;10290653;28;20251;-77
2023/11/27 20:45:31;;;;;;;7.73;7.53;;;5.30;99.90;;;;;;10297513;28;20223;-77
2023/11/27 20:50:34;;;;;;;7.70;7.40;;;5.30;99.90;;;;;;10293428;28;20254;-77
2023/11/27 20:55:38;;;;;;;6.83;6.53;;;5.30;99.90;;;;;;10301945;28;20281;-79
2023/11/27 21:00:40;;;;;;;6.90;6.60;;;5.30;99.90;;;;;;10317380;28;20199;-79
2023/11/27 21:05:44;;;;;;;7.00;6.80;;;5.30;99.90;;;;;;10319308;23;20234;-78
2023/11/27 21:10:49;;;;;;;8.80;8.50;;;5.30;99.90;;;;;;10296391;28;20254;-79
2023/11/27 21:15:51;;;;;;;8.60;8.20;;;5.30;99.90;;;;;;10296854;28;20363;-79
2023/11/27 21:20:56;;;;;;;7.20;7.00;;;5.30;99.90;;;;;;10324782;28;20234;-79
2023/11/27 21:25:59;;;;;;;7.57;7.37;;;5.30;99.90;;;;;;10316368;28;20251;-79
2023/11/27 21:31:02;;;;;;;8.50;8.20;;;5.30;99.90;;;;;;10300049;28;20199;-79
2023/11/27 21:36:07;;;;;;;7.50;7.30;;;5.30;99.90;;;;;;10308799;28;20643;-79
2023/11/27 21:41:10;;;;;;;8.70;8.40;;;5.40;99.90;;;;;;10327441;28;20212;-79
2023/11/27 21:46:13;;;;;;;8.07;7.77;;;5.30;99.90;;;;;;10330174;28;20219;-79
2023/11/27 21:51:18;;;;;;;8.33;7.93;;;5.30;99.90;;;;;;10331103;28;20212;-79
2023/11/27 21:56:24;;;;;;;9.00;8.70;;;5.30;99.90;;;;;;10315112;28;20294;-80
2023/11/27 22:01:27;;;;;;;8.53;8.23;;;5.30;99.90;;;;;;10335457;28;20203;-79
2023/11/27 22:06:30;;;;;;;8.23;7.93;;;5.30;99.90;;;;;;10306587;28;20278;-79
2023/11/27 22:11:34;;;;;;;7.83;7.60;;;5.30;99.90;;;;;;10293510;28;20207;-79
2023/11/27 22:16:37;;;;;;;8.30;8.00;;;5.30;99.90;;;;;;10327868;28;20232;-79
2023/11/27 22:21:39;;;;;;;7.27;7.07;;;5.20;99.90;;;;;;10325341;28;20212;-79
2023/11/27 22:26:43;;;;;;;8.10;7.80;;;5.20;99.90;;;;;;10326632;28;20219;-79
2023/11/27 22:31:45;;;;;;;8.07;7.77;;;5.20;99.90;;;;;;10327448;28;20207;-79
2023/11/27 22:36:48;;;;;;;7.67;7.47;;;5.20;99.90;;;;;;10293399;28;20227;-80
2023/11/27 22:41:51;;;;;;;7.30;7.10;;;5.20;99.90;;;;;;10311356;28;20214;-79
2023/11/27 22:46:54;;;;;;;7.27;7.07;;;5.20;99.90;;;;;;10315189;28;20290;-79
2023/11/27 22:51:56;;;;;;;6.80;6.40;;;5.20;99.90;;;;;;10331097;28;20779;-79
2023/11/27 22:57:00;;;;;;;6.27;6.07;;;5.20;99.90;;;;;;10333359;28;20780;-79
2023/11/27 23:02:02;;;;;;;6.20;6.00;;;5.30;99.90;;;;;;10329517;28;20204;-79
2023/11/27 23:07:05;;;;;;;6.27;6.07;;;5.30;99.90;;;;;;10293599;28;20212;-79
2023/11/27 23:12:09;;;;;;;5.80;5.60;;;5.20;99.90;;;;;;10311997;28;20597;-79
2023/11/27 23:17:12;;;;;;;4.70;4.60;;;5.30;99.90;;;;;;10315537;28;20246;-79
2023/11/27 23:22:14;;;;;;;4.50;4.40;;;5.30;99.90;;;;;;10340390;28;20210;-79
2023/11/27 23:27:18;;;;;;;3.97;3.87;;;5.30;99.90;;;;;;10314940;28;20216;-79
2023/11/27 23:32:20;;;;;;;5.10;4.80;;;5.40;99.90;;;;;;10327481;28;20210;-79
2023/11/27 23:37:23;;;;;;;4.60;4.40;;;5.30;99.90;;;;;;10328215;28;20298;-79
2023/11/27 23:42:26;;;;;;;4.60;4.50;;;5.40;99.90;;;;;;10299070;28;20301;-79
2023/11/27 23:47:31;;;;;;;4.90;4.80;;;5.40;99.90;;;;;;10309374;28;20439;-79
2023/11/27 23:52:33;;;;;;;5.87;5.40;;;5.40;99.90;;;;;;10303219;28;20199;-79
2023/11/27 23:57:37;;;;;;;5.00;4.90;;;5.40;99.90;;;;;;10306166;28;20223;-79
